createdAt,value
2018-05-25T00:02:33.702Z,25.20
2018-05-25T00:05:08.364Z,25.80
2018-05-25T00:07:42.955Z,26.63
2018-05-25T00:10:17.625Z,24.47
2018-05-25T00:12:52.267Z,25.80
2018-05-25T00:15:27.040Z,25.60
2018-05-25T00:18:01.813Z,25.53
2018-05-25T00:20:36.518Z,25.77
2018-05-25T00:23:11.915Z,25.80
2018-05-25T00:25:47.252Z,26.53
2018-05-25T00:28:22.054Z,26.23
2018-05-25T00:30:53.480Z,25.57
2018-05-25T00:33:28.212Z,26.17
2018-05-25T00:36:02.915Z,26.47
2018-05-25T00:38:37.660Z,27.07
2018-05-25T00:41:06.775Z,33.40
2018-05-25T00:43:41.507Z,26.13
2018-05-25T00:46:16.323Z,27.10
2018-05-25T00:48:51.863Z,25.50
2018-05-25T00:51:26.659Z,25.37
2018-05-25T00:54:01.369Z,26.37
2018-05-25T00:56:36.027Z,27.23
2018-05-25T00:59:11.683Z,25.97
2018-05-25T01:01:46.415Z,33.10
2018-05-25T01:04:21.554Z,24.73
2018-05-25T01:06:56.357Z,26.83
2018-05-25T01:09:26.144Z,26.60
2018-05-25T01:12:00.786Z,25.40
2018-05-25T01:14:36.254Z,25.83
2018-05-25T01:17:10.967Z,25.80
2018-05-25T01:19:45.572Z,27.90
2018-05-25T01:22:20.443Z,27.43
2018-05-25T01:24:55.192Z,25.77
2018-05-25T01:27:29.861Z,26.87
2018-05-25T01:30:04.432Z,26.97
2018-05-25T01:32:39.222Z,27.40
2018-05-25T01:35:13.807Z,28.60
2018-05-25T01:37:48.536Z,26.60
2018-05-25T01:40:22.779Z,26.40
2018-05-25T01:42:57.439Z,26.83
2018-05-25T01:45:32.840Z,25.77
2018-05-25T01:48:07.554Z,27.33
2018-05-25T01:50:42.399Z,26.50
2018-05-25T01:53:17.254Z,27.97
2018-05-25T01:55:51.967Z,27.77
2018-05-25T01:58:26.729Z,25.60
2018-05-25T02:01:01.409Z,27.93
2018-05-25T02:03:36.865Z,26.23
2018-05-25T02:06:06.440Z,26.67
2018-05-25T02:08:41.161Z,28.13
2018-05-25T02:11:15.909Z,26.47
2018-05-25T02:13:50.730Z,28.10
2018-05-25T02:16:25.303Z,29.47
2018-05-25T02:18:59.871Z,27.60
2018-05-25T02:21:34.424Z,27.90
2018-05-25T02:24:04.287Z,27.30
2018-05-25T02:26:39.027Z,26.00
2018-05-25T02:29:13.792Z,28.60
2018-05-25T02:31:49.823Z,27.87
2018-05-25T02:34:24.523Z,28.37
2018-05-25T02:36:59.239Z,28.57
2018-05-25T02:39:33.981Z,29.60
2018-05-25T02:42:08.507Z,27.27
2018-05-25T02:44:43.373Z,27.40
2018-05-25T02:47:17.995Z,27.87
2018-05-25T02:49:53.354Z,28.17
2018-05-25T02:52:28.084Z,28.33
2018-05-25T02:55:03.655Z,28.67
2018-05-25T02:57:38.212Z,27.63
2018-05-25T03:00:13.826Z,28.50
2018-05-25T03:02:48.378Z,29.27
2018-05-25T03:05:23.072Z,29.73
2018-05-25T03:07:57.761Z,29.23
2018-05-25T03:10:32.407Z,31.60
2018-05-25T03:13:07.028Z,30.63
2018-05-25T03:15:42.386Z,31.17
2018-05-25T03:18:17.140Z,31.80
2018-05-25T03:20:51.732Z,31.40
2018-05-25T03:23:26.489Z,29.57
2018-05-25T03:26:01.329Z,30.80
2018-05-25T03:28:35.822Z,29.77
2018-05-25T03:31:10.642Z,30.87
2018-05-25T03:33:45.412Z,28.73
2018-05-25T03:36:20.010Z,30.97
2018-05-25T03:38:49.102Z,30.27
2018-05-25T03:41:23.976Z,33.57
2018-05-25T03:43:59.536Z,31.70
2018-05-25T03:46:34.315Z,30.80
2018-05-25T03:49:09.052Z,32.07
2018-05-25T03:51:38.156Z,32.17
2018-05-25T03:54:12.967Z,32.57
2018-05-25T03:56:47.588Z,32.20
2018-05-25T03:59:33.564Z,32.37
2018-05-25T04:02:07.845Z,31.33
2018-05-25T04:04:42.548Z,30.57
2018-05-25T04:07:18.061Z,31.73
2018-05-25T04:09:52.666Z,31.47
2018-05-25T04:12:28.167Z,30.53
2018-05-25T04:15:02.875Z,31.30
2018-05-25T04:17:37.644Z,30.50
2018-05-25T04:20:12.557Z,30.43
2018-05-25T04:22:48.073Z,31.27
2018-05-25T04:25:22.954Z,32.43
2018-05-25T04:27:52.977Z,29.70
2018-05-25T04:30:27.653Z,30.70
2018-05-25T04:33:02.533Z,30.70
2018-05-25T04:35:38.032Z,30.20
2018-05-25T04:38:12.802Z,28.33
2018-05-25T04:40:47.395Z,27.70
2018-05-25T04:43:22.111Z,26.83
2018-05-25T04:45:57.807Z,29.33
2018-05-25T04:48:33.874Z,27.93
2018-05-25T04:51:08.425Z,29.17
2018-05-25T04:53:42.791Z,28.13
2018-05-25T04:56:17.696Z,28.33
2018-05-25T04:58:52.752Z,29.03
2018-05-25T05:01:27.583Z,26.33
2018-05-25T05:04:02.387Z,26.90
2018-05-25T05:06:37.392Z,26.53
2018-05-25T05:09:13.454Z,25.33
2018-05-25T05:11:48.633Z,26.20
2018-05-25T05:14:23.344Z,25.83
2018-05-25T05:16:58.279Z,26.20
2018-05-25T05:19:33.100Z,28.50
2018-05-25T05:22:07.921Z,26.83
2018-05-25T05:24:42.909Z,27.57
2018-05-25T05:27:17.684Z,28.73
2018-05-25T05:29:52.453Z,29.27
2018-05-25T05:32:27.468Z,27.77
2018-05-25T05:34:56.441Z,29.07
2018-05-25T05:37:26.325Z,29.33
2018-05-25T05:40:01.007Z,32.57
2018-05-25T05:42:40.985Z,30.47
2018-05-25T05:45:16.158Z,32.13
2018-05-25T05:47:51.031Z,30.93
2018-05-25T05:50:25.896Z,30.27
2018-05-25T05:53:00.782Z,30.70
2018-05-25T05:55:36.120Z,31.23
2018-05-25T05:58:11.086Z,30.03
2018-05-25T06:00:46.157Z,28.87
2018-05-25T06:03:20.684Z,33.53
2018-05-25T06:05:55.414Z,32.10
2018-05-25T06:08:30.446Z,30.40
2018-05-25T06:11:05.539Z,32.00
2018-05-25T06:13:40.989Z,31.23
2018-05-25T06:16:16.200Z,33.87
2018-05-25T06:18:51.603Z,31.60
2018-05-25T06:21:26.306Z,33.03
2018-05-25T06:24:01.372Z,31.93
2018-05-25T06:26:36.728Z,31.20
2018-05-25T06:29:11.817Z,32.57
2018-05-25T06:31:46.963Z,33.10
2018-05-25T06:34:22.168Z,33.60
2018-05-25T06:36:57.621Z,31.80
2018-05-25T06:39:32.849Z,33.07
2018-05-25T06:42:07.608Z,34.03
2018-05-25T06:44:37.706Z,34.90
2018-05-25T06:47:07.761Z,36.00
2018-05-25T06:49:37.567Z,34.83
2018-05-25T06:52:12.949Z,33.50
2018-05-25T06:54:47.993Z,34.53
2018-05-25T06:57:24.520Z,34.47
2018-05-25T06:59:59.305Z,36.73
2018-05-25T07:02:34.956Z,34.40
2018-05-25T07:05:10.215Z,32.67
2018-05-25T07:07:39.560Z,32.60
2018-05-25T07:10:08.597Z,35.17
2018-05-25T07:12:38.253Z,34.07
2018-05-25T07:15:08.973Z,34.60
2018-05-25T07:17:38.511Z,37.03
2018-05-25T07:20:08.841Z,39.40
2018-05-25T07:22:39.368Z,36.37
2018-05-25T07:25:08.532Z,35.87
2018-05-25T07:27:37.926Z,35.03
2018-05-25T07:30:12.685Z,39.07
2018-05-25T07:32:51.021Z,39.47
2018-05-25T07:35:25.636Z,37.37
2018-05-25T07:38:01.414Z,36.83
2018-05-25T07:40:37.957Z,36.80
2018-05-25T07:43:13.858Z,33.07
2018-05-25T07:45:48.657Z,35.40
2018-05-25T07:48:24.682Z,34.23
2018-05-25T07:50:59.522Z,33.17
2018-05-25T07:53:35.411Z,34.10
2018-05-25T07:56:11.009Z,36.03
2018-05-25T07:58:46.285Z,35.60
2018-05-25T08:01:22.061Z,32.67
2018-05-25T08:03:57.175Z,31.20
2018-05-25T08:06:32.157Z,32.33
2018-05-25T08:09:10.156Z,32.60
2018-05-25T08:11:46.609Z,34.43
2018-05-25T08:14:21.390Z,31.70
2018-05-25T08:16:57.488Z,30.97
2018-05-25T08:19:32.155Z,30.70
2018-05-25T08:22:07.936Z,29.70
2018-05-25T08:24:52.890Z,32.27
2018-05-25T08:27:28.849Z,30.40
2018-05-25T08:30:03.607Z,31.43
2018-05-25T08:32:39.428Z,31.27
2018-05-25T08:35:15.464Z,30.60
2018-05-25T08:37:50.280Z,30.10
2018-05-25T08:40:24.783Z,29.30
2018-05-25T08:43:01.568Z,32.30
2018-05-25T08:45:37.328Z,31.40
2018-05-25T08:48:22.720Z,29.93
2018-05-25T08:50:57.370Z,29.73
2018-05-25T08:53:32.476Z,28.70
2018-05-25T08:56:07.757Z,28.47
2018-05-25T08:58:44.840Z,25.00
2018-05-25T09:01:19.699Z,26.80
2018-05-25T09:03:55.843Z,25.87
2018-05-25T09:06:32.159Z,27.57
2018-05-25T09:09:06.508Z,28.10
2018-05-25T09:11:42.161Z,26.90
2018-05-25T09:14:16.839Z,24.33
2018-05-25T09:16:52.741Z,24.30
2018-05-25T09:19:27.825Z,25.63
2018-05-25T09:22:02.717Z,26.07
2018-05-25T09:24:37.819Z,25.93
2018-05-25T09:27:13.902Z,25.47
2018-05-25T09:29:49.009Z,25.57
2018-05-25T09:32:23.656Z,22.60
2018-05-25T09:34:53.518Z,25.57
2018-05-25T09:37:40.602Z,23.97
2018-05-25T09:40:15.715Z,23.77
2018-05-25T09:42:50.486Z,22.50
2018-05-25T09:45:26.139Z,22.20
2018-05-25T09:48:03.503Z,21.13
2018-05-25T09:50:38.427Z,20.20
2018-05-25T09:53:14.311Z,22.27
2018-05-25T09:55:49.492Z,23.17
2018-05-25T09:58:26.856Z,20.10
2018-05-25T10:01:02.520Z,21.93
2018-05-25T10:03:37.264Z,21.43
2018-05-25T10:06:13.973Z,21.67
2018-05-25T10:08:49.613Z,23.53
2018-05-25T10:11:24.377Z,24.20
2018-05-25T10:13:59.347Z,20.77
2018-05-25T10:16:36.846Z,21.40
2018-05-25T10:19:12.584Z,21.83
2018-05-25T10:21:51.263Z,22.17
2018-05-25T10:24:27.250Z,22.27
2018-05-25T10:27:04.493Z,20.67
2018-05-25T10:29:40.151Z,21.30
2018-05-25T10:32:16.372Z,21.00
2018-05-25T10:34:51.193Z,20.30
2018-05-25T10:37:26.147Z,18.30
2018-05-25T10:40:02.987Z,19.30
2018-05-25T10:42:37.642Z,21.90
2018-05-25T10:45:16.331Z,22.77
2018-05-25T10:47:51.077Z,22.70
2018-05-25T10:50:25.703Z,21.63
2018-05-25T10:53:00.494Z,19.67
2018-05-25T10:55:35.622Z,21.23
2018-05-25T10:58:10.496Z,22.33
2018-05-25T11:00:47.714Z,22.60
2018-05-25T11:03:23.088Z,24.10
2018-05-25T11:05:58.597Z,22.30
2018-05-25T11:08:33.695Z,22.77
2018-05-25T11:11:09.062Z,22.10
2018-05-25T11:13:43.716Z,20.77
2018-05-25T11:16:18.337Z,21.83
2018-05-25T11:18:52.935Z,20.77
2018-05-25T11:21:27.579Z,21.77
2018-05-25T11:24:02.188Z,21.70
2018-05-25T11:26:36.790Z,20.10
2018-05-25T11:29:11.461Z,19.73
2018-05-25T11:31:46.809Z,19.73
2018-05-25T11:34:22.375Z,20.57
2018-05-25T11:36:56.735Z,18.40
2018-05-25T11:39:31.621Z,19.13
2018-05-25T11:42:06.297Z,21.10
2018-05-25T11:44:38.485Z,21.37
2018-05-25T11:47:12.954Z,18.40
2018-05-25T11:49:47.619Z,19.40
2018-05-25T11:52:22.263Z,17.37
2018-05-25T11:54:51.443Z,16.73
2018-05-25T11:57:26.102Z,16.33
2018-05-25T12:00:00.707Z,15.40
2018-05-25T12:02:35.329Z,18.30
2018-05-25T12:05:04.984Z,16.90
2018-05-25T12:07:39.931Z,16.20
2018-05-25T12:10:14.687Z,15.83
2018-05-25T12:12:50.046Z,15.70
2018-05-25T12:15:24.932Z,16.37
2018-05-25T12:18:00.232Z,16.73
2018-05-25T12:20:34.990Z,17.23
2018-05-25T12:23:09.633Z,17.27
2018-05-25T12:25:45.102Z,17.03
2018-05-25T12:28:19.721Z,16.27
2018-05-25T12:30:48.992Z,16.07
2018-05-25T12:33:18.120Z,16.60
2018-05-25T12:35:48.008Z,16.60
2018-05-25T12:38:17.187Z,13.57
2018-05-25T12:40:46.323Z,16.90
2018-05-25T12:43:21.389Z,15.40
2018-05-25T12:45:55.979Z,17.30
2018-05-25T12:48:25.907Z,17.23
2018-05-25T12:50:56.024Z,16.10
2018-05-25T12:53:25.933Z,14.83
2018-05-25T12:55:54.923Z,14.90
2018-05-25T12:58:24.094Z,14.77
2018-05-25T13:00:53.065Z,15.50
2018-05-25T13:03:22.927Z,18.10
2018-05-25T13:05:58.354Z,15.67
2018-05-25T13:08:28.117Z,16.70
2018-05-25T13:10:58.197Z,20.17
2018-05-25T13:13:28.142Z,15.27
2018-05-25T13:15:57.952Z,15.73
2018-05-25T13:18:27.080Z,14.03
2018-05-25T13:20:56.832Z,15.23
2018-05-25T13:23:25.953Z,15.87
2018-05-25T13:25:55.172Z,15.83
2018-05-25T13:28:24.505Z,16.07
2018-05-25T13:30:53.608Z,16.07
2018-05-25T13:33:22.845Z,14.70
2018-05-25T13:35:52.743Z,15.90
2018-05-25T13:38:21.735Z,16.57
2018-05-25T13:40:50.860Z,15.73
2018-05-25T13:43:21.479Z,16.50
2018-05-25T13:45:50.650Z,15.67
2018-05-25T13:48:19.896Z,15.60
2018-05-25T13:50:48.919Z,16.23
2018-05-25T13:53:18.268Z,14.33
2018-05-25T13:55:47.229Z,15.60
2018-05-25T13:58:17.721Z,16.50
2018-05-25T14:00:46.924Z,13.70
2018-05-25T14:03:16.114Z,15.53
2018-05-25T14:05:45.220Z,15.23
2018-05-25T14:08:14.280Z,14.97
2018-05-25T14:10:43.857Z,13.27
2018-05-25T14:13:13.010Z,13.90
2018-05-25T14:15:42.295Z,13.80
2018-05-25T14:18:15.359Z,12.53
2018-05-25T14:20:44.571Z,12.73
2018-05-25T14:23:13.696Z,14.37
2018-05-25T14:25:43.454Z,14.70
2018-05-25T14:28:18.977Z,13.40
2018-05-25T14:30:53.989Z,13.60
2018-05-25T14:33:29.477Z,13.90
2018-05-25T14:36:03.769Z,13.53
2018-05-25T14:38:33.594Z,14.80
2018-05-25T14:41:11.962Z,13.10
2018-05-25T14:43:46.549Z,16.10
2018-05-25T14:46:21.223Z,14.17
2018-05-25T14:48:56.600Z,14.20
2018-05-25T14:51:31.212Z,15.07
2018-05-25T14:54:06.144Z,13.57
2018-05-25T14:56:40.848Z,12.40
2018-05-25T14:59:15.556Z,13.00
2018-05-25T15:01:50.339Z,14.57
2018-05-25T15:04:25.905Z,14.27
2018-05-25T15:07:00.612Z,14.10
2018-05-25T15:09:41.028Z,13.80
2018-05-25T15:12:15.583Z,13.57
2018-05-25T15:14:50.165Z,13.43
2018-05-25T15:17:19.256Z,13.83
2018-05-25T15:19:48.220Z,13.37
2018-05-25T15:22:17.630Z,12.03
2018-05-25T15:24:46.721Z,14.10
2018-05-25T15:27:16.687Z,14.70
2018-05-25T15:29:45.638Z,13.23
2018-05-25T15:32:14.870Z,11.73
2018-05-25T15:34:43.900Z,12.60
2018-05-25T15:37:13.651Z,13.43
2018-05-25T15:39:43.850Z,15.30
2018-05-25T15:42:13.138Z,13.67
2018-05-25T15:44:42.169Z,12.80
2018-05-25T15:47:11.567Z,13.97
2018-05-25T15:49:40.768Z,13.17
2018-05-25T15:52:10.775Z,13.10
2018-05-25T15:54:40.074Z,13.97
2018-05-25T15:57:09.405Z,12.80
2018-05-25T15:59:38.600Z,13.07
2018-05-25T16:02:08.797Z,13.30
2018-05-25T16:04:43.347Z,14.20
2018-05-25T16:07:13.179Z,11.93
2018-05-25T16:09:47.980Z,12.00
2018-05-25T16:12:22.591Z,10.80
2018-05-25T16:14:57.475Z,11.20
2018-05-25T16:17:37.467Z,11.40
2018-05-25T16:20:08.711Z,10.00
2018-05-25T16:22:43.825Z,9.73
2018-05-25T16:25:19.054Z,12.35
2018-05-25T16:27:55.198Z,7.93
2018-05-25T16:30:30.603Z,6.65
2018-05-25T16:33:05.833Z,6.57
2018-05-25T16:35:41.940Z,11.35
2018-05-25T16:38:17.548Z,7.10
2018-05-25T16:40:52.907Z,7.68
2018-05-25T16:43:28.837Z,7.15
2018-05-25T16:46:06.619Z,8.23
2018-05-25T16:48:42.747Z,9.40
2018-05-25T16:51:18.852Z,8.32
2018-05-25T16:53:55.341Z,8.10
2018-05-25T16:56:30.678Z,8.27
2018-05-25T16:59:06.209Z,8.03
2018-05-25T17:01:40.784Z,9.37
2018-05-25T17:04:15.592Z,8.93
2018-05-25T17:06:47.124Z,9.93
2018-05-25T17:09:21.758Z,9.50
2018-05-25T17:11:56.595Z,8.60
2018-05-25T17:14:31.271Z,8.80
2018-05-25T17:17:05.911Z,8.97
2018-05-25T17:19:41.044Z,9.23
2018-05-25T17:22:17.204Z,8.53
2018-05-25T17:24:52.726Z,9.03
2018-05-25T17:27:25.070Z,8.50
2018-05-25T17:29:59.747Z,9.20
2018-05-25T17:32:34.502Z,9.17
2018-05-25T17:35:11.587Z,9.17
2018-05-25T17:37:46.307Z,9.67
2018-05-25T17:40:23.738Z,9.40
2018-05-25T17:42:58.261Z,9.17
2018-05-25T17:45:34.178Z,9.10
2018-05-25T17:48:13.335Z,9.03
2018-05-25T17:50:48.136Z,10.40
2018-05-25T17:53:22.858Z,8.93
2018-05-25T17:55:57.614Z,9.63
2018-05-25T17:58:32.200Z,9.33
2018-05-25T18:01:06.919Z,10.50
2018-05-25T18:03:41.761Z,10.00
2018-05-25T18:06:16.569Z,10.63
2018-05-25T18:08:51.416Z,9.33
2018-05-25T18:11:25.948Z,9.90
2018-05-25T18:14:01.326Z,10.83
2018-05-25T18:16:36.087Z,11.60
2018-05-25T18:19:10.678Z,9.47
2018-05-25T18:21:44.558Z,10.77
2018-05-25T18:24:19.129Z,11.33
2018-05-25T18:26:53.810Z,10.30
2018-05-25T18:29:28.666Z,9.77
2018-05-25T18:32:03.244Z,10.90
2018-05-25T18:34:37.952Z,10.80
2018-05-25T18:37:12.681Z,10.20
2018-05-25T18:39:47.262Z,12.10
2018-05-25T18:42:22.073Z,11.03
2018-05-25T18:44:56.986Z,11.43
2018-05-25T18:47:28.877Z,10.33
2018-05-25T18:50:03.420Z,11.47
2018-05-25T18:52:38.193Z,12.30
2018-05-25T18:55:12.816Z,12.80
2018-05-25T18:57:48.937Z,15.70
2018-05-25T19:00:23.329Z,13.00
2018-05-25T19:02:52.346Z,11.97
2018-05-25T19:05:22.587Z,13.60
2018-05-25T19:07:51.903Z,11.80
2018-05-25T19:10:21.141Z,13.13
2018-05-25T19:12:51.333Z,12.63
2018-05-25T19:15:21.372Z,12.27
2018-05-25T19:17:50.647Z,12.37
2018-05-25T19:20:21.254Z,13.63
2018-05-25T19:22:51.448Z,11.17
2018-05-25T19:25:20.887Z,11.80
2018-05-25T19:27:50.209Z,11.67
2018-05-25T19:30:20.037Z,11.60
2018-05-25T19:32:49.913Z,13.20
2018-05-25T19:35:19.177Z,15.80
2018-05-25T19:37:48.369Z,12.77
2018-05-25T19:40:17.577Z,11.57
2018-05-25T19:42:47.120Z,11.93
2018-05-25T19:45:16.878Z,10.87
2018-05-25T19:47:47.010Z,12.27
2018-05-25T19:50:16.735Z,12.80
2018-05-25T19:52:46.133Z,13.93
2018-05-25T19:55:20.812Z,12.10
2018-05-25T19:57:56.101Z,15.70
2018-05-25T20:00:31.941Z,11.53
2018-05-25T20:03:11.984Z,12.33
2018-05-25T20:05:45.140Z,12.73
2018-05-25T20:08:20.736Z,11.30
2018-05-25T20:10:55.399Z,13.83
2018-05-25T20:13:30.863Z,14.13
2018-05-25T20:16:06.326Z,12.90
2018-05-25T20:18:41.063Z,12.40
2018-05-25T20:21:16.500Z,11.90
2018-05-25T20:23:51.303Z,12.40
2018-05-25T20:26:25.858Z,12.27
2018-05-25T20:29:00.608Z,15.63
2018-05-25T20:31:35.310Z,12.03
2018-05-25T20:34:09.866Z,13.27
2018-05-25T20:36:44.687Z,11.77
2018-05-25T20:39:19.477Z,15.27
2018-05-25T20:41:54.017Z,12.67
2018-05-25T20:44:28.697Z,13.07
2018-05-25T20:47:10.126Z,13.20
2018-05-25T20:49:44.910Z,13.77
2018-05-25T20:52:20.372Z,18.50
2018-05-25T20:54:56.059Z,12.97
2018-05-25T20:57:30.753Z,13.40
2018-05-25T21:00:04.967Z,12.60
2018-05-25T21:02:39.579Z,14.33
2018-05-25T21:05:14.448Z,12.87
2018-05-25T21:07:49.858Z,13.33
2018-05-25T21:10:24.423Z,13.53
2018-05-25T21:12:59.071Z,13.13
2018-05-25T21:15:34.399Z,15.20
2018-05-25T21:18:09.091Z,13.57
2018-05-25T21:20:43.624Z,13.60
2018-05-25T21:23:18.541Z,14.77
2018-05-25T21:25:53.128Z,13.40
2018-05-25T21:28:28.730Z,14.23
2018-05-25T21:31:03.532Z,15.53
2018-05-25T21:33:38.341Z,22.53
2018-05-25T21:36:08.466Z,16.60
2018-05-25T21:38:43.035Z,14.77
2018-05-25T21:41:17.732Z,14.77
2018-05-25T21:43:52.463Z,16.13
2018-05-25T21:46:27.202Z,14.57
2018-05-25T21:49:01.759Z,15.53
2018-05-25T21:51:36.573Z,15.33
2018-05-25T21:54:11.422Z,17.60
2018-05-25T21:56:46.100Z,19.03
2018-05-25T21:59:20.727Z,16.47
2018-05-25T22:01:57.004Z,15.37
2018-05-25T22:04:32.030Z,17.30
2018-05-25T22:07:06.736Z,15.40
2018-05-25T22:09:42.227Z,18.47
2018-05-25T22:12:16.978Z,16.83
2018-05-25T22:14:51.596Z,17.30
2018-05-25T22:17:27.142Z,14.77
2018-05-25T22:20:02.434Z,16.20
2018-05-25T22:22:38.011Z,18.40
2018-05-25T22:25:12.878Z,16.20
2018-05-25T22:27:50.333Z,15.27
2018-05-25T22:30:25.108Z,15.97
2018-05-25T22:33:00.432Z,16.40
2018-05-25T22:35:35.341Z,17.07
2018-05-25T22:38:09.893Z,13.50
2018-05-25T22:40:44.590Z,19.07
2018-05-25T22:43:30.429Z,14.77
2018-05-25T22:46:16.630Z,14.90
2018-05-25T22:48:56.899Z,15.00
2018-05-25T22:51:42.910Z,14.90
2018-05-25T22:54:31.168Z,14.77
2018-05-25T22:57:05.956Z,14.63
2018-05-25T22:59:35.165Z,15.87
2018-05-25T23:02:10.022Z,13.90
2018-05-25T23:04:46.192Z,14.73
2018-05-25T23:07:21.542Z,15.57
2018-05-25T23:09:56.141Z,14.70
2018-05-25T23:12:30.832Z,15.23
2018-05-25T23:15:05.592Z,14.87
2018-05-25T23:17:44.756Z,14.77
2018-05-25T23:20:19.375Z,16.33
2018-05-25T23:22:54.086Z,15.43
2018-05-25T23:25:28.927Z,15.30
2018-05-25T23:28:03.660Z,14.53
2018-05-25T23:30:39.024Z,15.40
2018-05-25T23:33:13.777Z,14.50
2018-05-25T23:35:48.473Z,14.80
2018-05-25T23:38:23.262Z,14.73
2018-05-25T23:40:57.984Z,15.60
2018-05-25T23:43:32.798Z,15.90
2018-05-25T23:46:07.547Z,15.50
2018-05-25T23:48:42.796Z,16.20
2018-05-25T23:51:18.418Z,15.73
2018-05-25T23:53:53.049Z,15.40
2018-05-25T23:56:27.709Z,14.40
2018-05-25T23:59:03.178Z,15.60
